Time;durP1;ratioP1;P1;durP2;ratioP2;P2;SDS_P1;SDS_P2;PMS_P1;PMS_P2;Temp;Humidity;BMP_temperature;BMP_pressure;BME280_temperature;BME280_humidity;BME280_pressure;Samples;Min_cycle;Max_cycle;Signal;HPM_P1;HPM_P2
2023/10/22 00:00:48;;;;;;;;;;;18.80;92.70;;;;;;6096768;23;19964;-70
2023/10/22 00:03:14;;;;;;;;;;;18.80;92.40;;;;;;6096557;23;19913;-70
2023/10/22 00:05:40;;;;;;;;;;;18.80;92.50;;;;;;6096547;23;19905;-70
2023/10/22 00:08:06;;;;;;;;;;;18.80;92.60;;;;;;6097100;23;19920;-70
2023/10/22 00:10:31;;;;;;;;;;;18.80;92.40;;;;;;6096363;23;19909;-70
2023/10/22 00:12:57;;;;;;;;;;;18.80;92.50;;;;;;6096429;23;20378;-70
2023/10/22 00:15:23;;;;;;;;;;;18.70;92.10;;;;;;6097547;23;19929;-73
2023/10/22 00:17:49;;;;;;;;;;;19.00;92.40;;;;;;6096377;23;19901;-72
2023/10/22 00:20:14;;;;;;;;;;;18.80;92.60;;;;;;6097005;23;19901;-72
2023/10/22 00:22:40;;;;;;;;;;;18.80;92.60;;;;;;6097081;23;19901;-72
2023/10/22 00:25:06;;;;;;;;;;;18.80;92.60;;;;;;6097036;23;19932;-70
2023/10/22 00:27:32;;;;;;;;;;;18.80;91.80;;;;;;6096739;23;19908;-72
2023/10/22 00:29:58;;;;;;;;;;;18.70;92.60;;;;;;6096819;23;19909;-70
2023/10/22 00:32:25;;;;;;;;;;;17.90;92.30;;;;;;6096541;23;20331;-70
2023/10/22 00:34:51;;;;;;;;;;;18.70;92.50;;;;;;6096525;23;19916;-70
2023/10/22 00:37:16;;;;;;;;;;;18.70;92.50;;;;;;6096207;23;19901;-70
2023/10/22 00:39:43;;;;;;;;;;;18.60;92.40;;;;;;6096899;23;19972;-70
2023/10/22 00:42:09;;;;;;;;;;;18.70;92.40;;;;;;6097378;23;19907;-70
2023/10/22 00:44:35;;;;;;;;;;;18.90;92.40;;;;;;6096791;23;20266;-70
2023/10/22 00:47:01;;;;;;;;;;;18.70;92.30;;;;;;6096268;23;19908;-70
2023/10/22 00:49:27;;;;;;;;;;;18.70;92.50;;;;;;6096205;23;19909;-70
2023/10/22 00:51:52;;;;;;;;;;;18.60;92.50;;;;;;6096168;23;19901;-71
2023/10/22 00:54:18;;;;;;;;;;;18.60;92.50;;;;;;6096399;23;19924;-71
2023/10/22 00:56:44;;;;;;;;;;;18.60;92.50;;;;;;6096386;23;19901;-70
2023/10/22 00:59:11;;;;;;;;;;;18.60;92.60;;;;;;6096220;23;19902;-71
2023/10/22 01:01:37;;;;;;;;;;;18.60;92.30;;;;;;6096098;23;19957;-71
2023/10/22 01:04:03;;;;;;;;;;;18.70;92.50;;;;;;6094193;23;20344;-71
2023/10/22 01:06:30;;;;;;;;;;;18.60;92.10;;;;;;6096366;23;19902;-71
2023/10/22 01:08:56;;;;;;;;;;;18.50;92.50;;;;;;6096311;23;20317;-71
2023/10/22 01:11:22;;;;;;;;;;;18.60;92.50;;;;;;6096944;23;19916;-70
2023/10/22 01:13:48;;;;;;;;;;;18.60;92.50;;;;;;6096409;23;19901;-71
2023/10/22 01:16:14;;;;;;;;;;;18.50;92.50;;;;;;6096418;23;19983;-71
2023/10/22 01:18:40;;;;;;;;;;;18.80;92.60;;;;;;6096342;23;19901;-71
2023/10/22 01:21:06;;;;;;;;;;;18.60;92.60;;;;;;6096485;23;19905;-70
2023/10/22 01:23:36;;;;;;;;;;;18.50;92.50;;;;;;6096200;23;19983;-71
2023/10/22 01:26:02;;;;;;;;;;;18.60;90.30;;;;;;6096169;23;19902;-70
2023/10/22 01:28:28;;;;;;;;;;;18.50;92.50;;;;;;6096104;23;19901;-71
2023/10/22 01:30:55;;;;;;;;;;;18.60;92.60;;;;;;6095958;23;19909;-71
2023/10/22 01:33:21;;;;;;;;;;;18.60;92.70;;;;;;6096041;23;19900;-70
2023/10/22 01:35:47;;;;;;;;;;;18.50;92.50;;;;;;6096607;23;19972;-70
2023/10/22 01:38:13;;;;;;;;;;;18.50;92.70;;;;;;6096296;23;20309;-71
2023/10/22 01:40:39;;;;;;;;;;;17.20;92.20;;;;;;6097147;23;19928;-70
2023/10/22 01:43:05;;;;;;;;;;;18.50;92.50;;;;;;6096575;23;19956;-70
2023/10/22 01:45:30;;;;;;;;;;;18.50;92.60;;;;;;6094569;23;20289;-71
2023/10/22 01:47:56;;;;;;;;;;;18.40;92.60;;;;;;6097495;23;19934;-70
2023/10/22 01:50:22;;;;;;;;;;;18.50;92.60;;;;;;6096395;23;20317;-73
2023/10/22 01:52:48;;;;;;;;;;;18.50;92.70;;;;;;6098315;23;19901;-73
2023/10/22 01:55:14;;;;;;;;;;;18.50;92.70;;;;;;6098283;23;19901;-73
2023/10/22 01:57:40;;;;;;;;;;;18.50;92.50;;;;;;6098277;23;19972;-73
2023/10/22 02:00:06;;;;;;;;;;;18.50;92.70;;;;;;6097877;23;19975;-72
2023/10/22 02:02:34;;;;;;;;;;;18.40;92.40;;;;;;6097753;23;19913;-73
2023/10/22 02:04:59;;;;;;;;;;;18.50;92.70;;;;;;6098001;23;19917;-73
2023/10/22 02:07:25;;;;;;;;;;;18.40;92.60;;;;;;6098648;23;20308;-73
2023/10/22 02:09:53;;;;;;;;;;;18.50;92.70;;;;;;6097419;23;19905;-73
2023/10/22 02:12:18;;;;;;;;;;;18.40;92.80;;;;;;6097418;23;19924;-73
2023/10/22 02:14:44;;;;;;;;;;;18.50;92.80;;;;;;6097409;23;19901;-73
2023/10/22 02:17:09;;;;;;;;;;;18.30;92.70;;;;;;6097416;23;19956;-73
2023/10/22 02:19:35;;;;;;;;;;;18.50;92.70;;;;;;6097369;23;19908;-73
2023/10/22 02:22:01;;;;;;;;;;;18.40;92.80;;;;;;6097418;23;19956;-73
2023/10/22 02:24:28;;;;;;;;;;;18.50;92.80;;;;;;6097882;23;19984;-73
2023/10/22 02:26:54;;;;;;;;;;;18.40;92.80;;;;;;6097803;23;19902;-73
2023/10/22 02:29:21;;;;;;;;;;;18.40;92.70;;;;;;6097936;23;20046;-73
2023/10/22 02:31:47;;;;;;;;;;;18.40;92.70;;;;;;6097681;23;19910;-73
2023/10/22 02:34:13;;;;;;;;;;;18.40;92.90;;;;;;6097938;23;19901;-73
2023/10/22 02:36:38;;;;;;;;;;;18.30;92.70;;;;;;6097793;23;19901;-73
2023/10/22 02:39:04;;;;;;;;;;;18.40;92.80;;;;;;6097283;23;19936;-73
2023/10/22 02:41:30;;;;;;;;;;;18.30;92.80;;;;;;6097104;23;19901;-73
2023/10/22 02:43:57;;;;;;;;;;;18.40;92.70;;;;;;6097166;23;19913;-73
2023/10/22 02:46:22;;;;;;;;;;;18.40;92.80;;;;;;6097150;23;20313;-72
2023/10/22 02:48:48;;;;;;;;;;;18.30;92.70;;;;;;6097205;23;19901;-71
2023/10/22 02:51:14;;;;;;;;;;;18.40;92.80;;;;;;6097126;23;20325;-70
2023/10/22 02:53:39;;;;;;;;;;;18.30;92.70;;;;;;6097046;23;19933;-70
2023/10/22 02:56:07;;;;;;;;;;;18.30;92.80;;;;;;6097560;23;19909;-71
2023/10/22 02:58:33;;;;;;;;;;;18.40;92.80;;;;;;6097273;23;19956;-71
2023/10/22 03:01:03;;;;;;;;;;;18.30;92.70;;;;;;6072222;23;19976;-70
2023/10/22 03:03:30;;;;;;;;;;;18.30;92.60;;;;;;6096822;23;19913;-71
2023/10/22 03:05:59;;;;;;;;;;;18.30;92.60;;;;;;6098036;23;19976;-73
2023/10/22 03:08:25;;;;;;;;;;;18.30;90.30;;;;;;6097094;23;19908;-73
2023/10/22 03:10:51;;;;;;;;;;;18.30;92.70;;;;;;6097481;23;19965;-73
2023/10/22 03:13:17;;;;;;;;;;;18.20;92.70;;;;;;6097021;23;20274;-73
2023/10/22 03:15:43;;;;;;;;;;;18.20;92.50;;;;;;6097514;23;19948;-73
2023/10/22 03:18:09;;;;;;;;;;;18.20;92.70;;;;;;6097126;23;20233;-73
2023/10/22 03:20:35;;;;;;;;;;;18.20;92.60;;;;;;6097299;23;19901;-72
2023/10/22 03:23:03;;;;;;;;;;;18.20;92.70;;;;;;6096982;23;20428;-73
2023/10/22 03:25:29;;;;;;;;;;;18.20;92.40;;;;;;6096709;23;19909;-73
2023/10/22 03:27:55;;;;;;;;;;;18.20;92.60;;;;;;6096691;23;19908;-73
2023/10/22 03:30:20;;;;;;;;;;;18.20;92.70;;;;;;6096558;23;20293;-73
2023/10/22 03:32:46;;;;;;;;;;;;;;;;;;6096720;23;19912;-73
2023/10/22 03:35:13;;;;;;;;;;;18.20;90.10;;;;;;6096924;23;19901;-73
2023/10/22 03:37:39;;;;;;;;;;;18.20;92.70;;;;;;6096667;23;19907;-73
2023/10/22 03:40:04;;;;;;;;;;;18.20;92.70;;;;;;6097166;23;19901;-73
2023/10/22 03:42:30;;;;;;;;;;;18.20;91.60;;;;;;6096574;23;19901;-73
2023/10/22 03:44:55;;;;;;;;;;;18.10;92.70;;;;;;6096670;23;19905;-73
2023/10/22 03:47:21;;;;;;;;;;;18.00;92.60;;;;;;6096591;23;19923;-73
2023/10/22 03:49:47;;;;;;;;;;;18.10;92.60;;;;;;6096437;23;19901;-73
2023/10/22 03:52:12;;;;;;;;;;;18.20;92.80;;;;;;6096534;23;19909;-73
2023/10/22 03:54:38;;;;;;;;;;;18.00;92.40;;;;;;6097114;23;19976;-74
2023/10/22 03:57:04;;;;;;;;;;;18.20;92.80;;;;;;6096839;23;20356;-73
2023/10/22 03:59:30;;;;;;;;;;;18.10;92.60;;;;;;6096515;23;19905;-73
2023/10/22 04:01:56;;;;;;;;;;;;;;;;;;6096777;23;19905;-71
2023/10/22 04:04:22;;;;;;;;;;;18.10;90.90;;;;;;6106516;23;20241;-71
2023/10/22 04:06:48;;;;;;;;;;;18.20;92.60;;;;;;6096745;23;20268;-71
2023/10/22 04:09:14;;;;;;;;;;;18.20;92.60;;;;;;6096630;23;19902;-71
2023/10/22 04:11:40;;;;;;;;;;;18.10;92.60;;;;;;6096491;23;19910;-71
2023/10/22 04:14:06;;;;;;;;;;;18.00;92.80;;;;;;6097039;23;20262;-71
2023/10/22 04:16:33;;;;;;;;;;;18.10;92.70;;;;;;6096555;23;19901;-71
2023/10/22 04:19:00;;;;;;;;;;;18.10;92.60;;;;;;6096312;23;19917;-71
2023/10/22 04:21:26;;;;;;;;;;;18.00;92.50;;;;;;6096506;23;19902;-70
2023/10/22 04:23:51;;;;;;;;;;;18.00;92.70;;;;;;6096843;23;19901;-71
2023/10/22 04:26:17;;;;;;;;;;;18.10;92.70;;;;;;6096860;23;20049;-71
2023/10/22 04:28:44;;;;;;;;;;;18.10;92.60;;;;;;6096887;23;19901;-71
2023/10/22 04:31:10;;;;;;;;;;;18.00;92.60;;;;;;6097174;23;20229;-73
2023/10/22 04:33:36;;;;;;;;;;;18.10;92.80;;;;;;6096901;23;19911;-73
2023/10/22 04:36:03;;;;;;;;;;;18.00;92.60;;;;;;6096825;23;20320;-73
2023/10/22 04:38:30;;;;;;;;;;;18.10;92.50;;;;;;6096427;23;19902;-73
2023/10/22 04:40:56;;;;;;;;;;;18.10;92.80;;;;;;6096745;23;19901;-73
2023/10/22 04:43:22;;;;;;;;;;;18.10;92.80;;;;;;6096473;23;19974;-73
2023/10/22 04:45:49;;;;;;;;;;;18.10;92.60;;;;;;6096413;23;19901;-73
2023/10/22 04:48:15;;;;;;;;;;;18.10;92.80;;;;;;6096771;23;19949;-73
2023/10/22 04:50:42;;;;;;;;;;;18.00;92.70;;;;;;6096324;23;20434;-73
2023/10/22 04:53:08;;;;;;;;;;;18.00;92.70;;;;;;6096612;23;19908;-73
2023/10/22 04:55:34;;;;;;;;;;;18.00;92.80;;;;;;6096333;23;20237;-74
2023/10/22 04:58:02;;;;;;;;;;;18.00;92.70;;;;;;6096352;23;19901;-73
2023/10/22 05:00:27;;;;;;;;;;;18.00;92.70;;;;;;6096175;23;19909;-73
2023/10/22 05:02:53;;;;;;;;;;;18.00;92.50;;;;;;6095933;23;19913;-74
2023/10/22 05:05:20;;;;;;;;;;;18.10;92.70;;;;;;6096197;23;19916;-74
2023/10/22 05:07:46;;;;;;;;;;;18.20;92.60;;;;;;6096092;23;19905;-73
2023/10/22 05:10:12;;;;;;;;;;;18.00;92.80;;;;;;6095944;23;19937;-73
2023/10/22 05:12:38;;;;;;;;;;;18.10;92.90;;;;;;6096066;23;19901;-73
2023/10/22 05:15:03;;;;;;;;;;;18.00;92.60;;;;;;6096102;23;19901;-73
2023/10/22 05:17:29;;;;;;;;;;;18.00;92.30;;;;;;6096531;23;20273;-71
2023/10/22 05:19:55;;;;;;;;;;;17.90;92.80;;;;;;6096132;23;19902;-71
2023/10/22 05:22:20;;;;;;;;;;;18.00;92.80;;;;;;6096578;23;19952;-71
2023/10/22 05:24:46;;;;;;;;;;;18.10;92.80;;;;;;6098679;23;19905;-71
2023/10/22 05:27:13;;;;;;;;;;;17.90;92.80;;;;;;6098510;23;19901;-71
2023/10/22 05:29:39;;;;;;;;;;;18.00;92.80;;;;;;6098067;23;19902;-70
2023/10/22 05:32:05;;;;;;;;;;;18.10;92.70;;;;;;6098530;23;19901;-70
2023/10/22 05:34:31;;;;;;;;;;;17.90;92.60;;;;;;6098076;23;19909;-71
2023/10/22 05:36:57;;;;;;;;;;;17.90;92.80;;;;;;6098349;23;20312;-70
2023/10/22 05:39:23;;;;;;;;;;;18.00;92.80;;;;;;6098514;23;19902;-71
2023/10/22 05:41:50;;;;;;;;;;;17.90;92.70;;;;;;6098045;23;19938;-70
2023/10/22 05:44:16;;;;;;;;;;;17.90;92.80;;;;;;6098269;23;19937;-70
2023/10/22 05:46:42;;;;;;;;;;;18.00;92.90;;;;;;6098860;23;19901;-73
2023/10/22 05:49:10;;;;;;;;;;;17.90;92.70;;;;;;6098290;23;20236;-73
2023/10/22 05:51:36;;;;;;;;;;;18.00;92.70;;;;;;6098026;23;19909;-73
2023/10/22 05:54:03;;;;;;;;;;;17.90;92.70;;;;;;6097855;23;20241;-73
2023/10/22 05:56:30;;;;;;;;;;;17.90;92.70;;;;;;6098178;23;19901;-71
2023/10/22 05:58:56;;;;;;;;;;;17.90;92.60;;;;;;6097962;23;19956;-70
2023/10/22 06:01:22;;;;;;;;;;;17.90;92.60;;;;;;6097715;23;19901;-70
2023/10/22 06:03:48;;;;;;;;;;;17.80;92.80;;;;;;6097654;23;19913;-70
2023/10/22 06:06:18;;;;;;;;;;;17.90;92.80;;;;;;6098219;23;19905;-70
2023/10/22 06:08:45;;;;;;;;;;;17.90;92.70;;;;;;6098086;23;19901;-70
2023/10/22 06:11:11;;;;;;;;;;;17.80;92.80;;;;;;6097564;23;20321;-70
2023/10/22 06:13:38;;;;;;;;;;;17.90;92.90;;;;;;6098313;23;19980;-70
2023/10/22 06:16:07;;;;;;;;;;;17.90;91.00;;;;;;6097865;23;20237;-70
2023/10/22 06:18:33;;;;;;;;;;;17.90;92.90;;;;;;6097864;23;19901;-70
2023/10/22 06:20:59;;;;;;;;;;;17.90;93.00;;;;;;6097822;23;19949;-70
2023/10/22 06:23:24;;;;;;;;;;;17.90;92.80;;;;;;6097172;23;19901;-71
2023/10/22 06:25:50;;;;;;;;;;;17.90;93.00;;;;;;6097223;23;19901;-70
2023/10/22 06:28:15;;;;;;;;;;;17.80;92.80;;;;;;6097337;23;19912;-70
2023/10/22 06:30:41;;;;;;;;;;;17.80;92.90;;;;;;6106957;23;19916;-70
2023/10/22 06:33:06;;;;;;;;;;;17.80;92.80;;;;;;6097123;23;20236;-70
2023/10/22 06:35:32;;;;;;;;;;;17.90;92.90;;;;;;6096904;23;19907;-70
2023/10/22 06:37:58;;;;;;;;;;;17.90;93.00;;;;;;6097201;23;19929;-71
2023/10/22 06:40:23;;;;;;;;;;;17.90;92.90;;;;;;6097231;23;19912;-70
2023/10/22 06:42:49;;;;;;;;;;;17.80;92.80;;;;;;6098403;23;19972;-73
2023/10/22 06:45:15;;;;;;;;;;;17.90;93.00;;;;;;6097170;23;19957;-73
2023/10/22 06:47:41;;;;;;;;;;;17.80;92.70;;;;;;6097230;23;19901;-73
2023/10/22 06:50:08;;;;;;;;;;;17.90;93.10;;;;;;6097018;23;19909;-73
2023/10/22 06:52:34;;;;;;;;;;;17.80;92.70;;;;;;6106932;23;20109;-73
2023/10/22 06:54:59;;;;;;;;;;;17.90;92.80;;;;;;6097749;23;19901;-71
2023/10/22 06:57:25;;;;;;;;;;;17.80;92.90;;;;;;6097690;23;19924;-71
2023/10/22 06:59:52;;;;;;;;;;;17.90;92.90;;;;;;6097682;23;19901;-71
2023/10/22 07:02:18;;;;;;;;;;;17.80;92.70;;;;;;6097180;23;19916;-80
2023/10/22 07:04:47;;;;;;;;;;;17.10;92.60;;;;;;6097098;23;19956;-71
2023/10/22 07:07:29;;;;;;;;;;;17.90;92.80;;;;;;6094737;23;19901;-71
2023/10/22 07:09:56;;;;;;;;;;;17.90;92.90;;;;;;6097490;23;20444;-72
2023/10/22 07:12:21;;;;;;;;;;;17.90;92.90;;;;;;6097584;23;19901;-73
2023/10/22 07:14:47;;;;;;;;;;;17.80;92.90;;;;;;6097214;23;20301;-71
2023/10/22 07:17:13;;;;;;;;;;;17.80;92.90;;;;;;6097546;23;19916;-74
2023/10/22 07:19:39;;;;;;;;;;;17.90;92.80;;;;;;6097497;23;19901;-73
2023/10/22 07:22:05;;;;;;;;;;;18.10;93.10;;;;;;6097515;23;19908;-72
2023/10/22 07:24:33;;;;;;;;;;;17.90;92.90;;;;;;6097063;23;20233;-72
2023/10/22 07:26:59;;;;;;;;;;;17.80;92.80;;;;;;6097320;23;19909;-72
2023/10/22 07:29:25;;;;;;;;;;;17.90;92.90;;;;;;6097527;23;19948;-72
2023/10/22 07:31:51;;;;;;;;;;;17.80;92.90;;;;;;6097387;23;19916;-72
2023/10/22 07:34:17;;;;;;;;;;;17.90;92.90;;;;;;6097342;23;19984;-72
2023/10/22 07:36:43;;;;;;;;;;;17.80;92.90;;;;;;6097376;23;19902;-72
2023/10/22 07:39:12;;;;;;;;;;;17.80;92.80;;;;;;6097308;23;19948;-73
2023/10/22 07:41:38;;;;;;;;;;;17.80;92.80;;;;;;6096803;23;19939;-73
2023/10/22 07:44:04;;;;;;;;;;;17.80;92.80;;;;;;6097228;23;19901;-77
2023/10/22 07:46:30;;;;;;;;;;;17.80;92.80;;;;;;6096800;23;20433;-75
2023/10/22 07:48:56;;;;;;;;;;;17.80;92.80;;;;;;6096814;23;19937;-73
2023/10/22 07:51:24;;;;;;;;;;;17.90;93.00;;;;;;6097088;23;19987;-73
2023/10/22 07:53:50;;;;;;;;;;;17.80;92.90;;;;;;6096711;23;19971;-73
2023/10/22 07:56:17;;;;;;;;;;;17.90;92.90;;;;;;6097161;23;19901;-73
2023/10/22 07:58:43;;;;;;;;;;;17.90;93.10;;;;;;6096767;23;19908;-73
2023/10/22 08:01:09;;;;;;;;;;;17.80;92.90;;;;;;6097189;23;19901;-73
2023/10/22 08:03:35;;;;;;;;;;;17.80;92.80;;;;;;6096453;23;19964;-73
2023/10/22 08:06:02;;;;;;;;;;;17.80;92.90;;;;;;6097261;23;19984;-73
2023/10/22 08:08:28;;;;;;;;;;;17.80;93.10;;;;;;6097029;23;19908;-73
2023/10/22 08:10:57;;;;;;;;;;;17.80;92.90;;;;;;6096655;23;19984;-73
2023/10/22 08:13:24;;;;;;;;;;;17.90;90.70;;;;;;6096638;23;19950;-73
2023/10/22 08:15:50;;;;;;;;;;;17.90;93.00;;;;;;6097047;23;19907;-73
2023/10/22 08:18:16;;;;;;;;;;;17.90;92.90;;;;;;6097125;23;19905;-73
2023/10/22 08:20:42;;;;;;;;;;;17.80;92.80;;;;;;6097077;23;19909;-73
2023/10/22 08:23:08;;;;;;;;;;;17.90;93.00;;;;;;6096690;23;20221;-73
2023/10/22 08:25:34;;;;;;;;;;;17.90;93.00;;;;;;6096606;23;19909;-73
2023/10/22 08:28:00;;;;;;;;;;;17.90;93.00;;;;;;6096939;23;19908;-73
2023/10/22 08:30:27;;;;;;;;;;;17.90;93.10;;;;;;6096771;23;19913;-73
2023/10/22 08:32:52;;;;;;;;;;;17.90;92.90;;;;;;6096732;23;19901;-73
2023/10/22 08:35:18;;;;;;;;;;;17.90;92.90;;;;;;6096865;23;19975;-71
2023/10/22 08:37:44;;;;;;;;;;;17.80;92.80;;;;;;6096368;23;19901;-71
2023/10/22 08:40:10;;;;;;;;;;;17.90;93.00;;;;;;6096406;23;19908;-72
2023/10/22 08:42:36;;;;;;;;;;;17.90;92.60;;;;;;6096843;23;20218;-72
2023/10/22 08:45:02;;;;;;;;;;;17.90;92.90;;;;;;6096550;23;19909;-72
2023/10/22 08:47:29;;;;;;;;;;;17.90;93.00;;;;;;6096506;23;20313;-73
2023/10/22 08:49:55;;;;;;;;;;;17.90;92.60;;;;;;6096502;23;19901;-73
2023/10/22 08:52:22;;;;;;;;;;;17.90;93.10;;;;;;6096559;23;20336;-73
2023/10/22 08:54:48;;;;;;;;;;;17.70;92.90;;;;;;6096836;23;19976;-73
2023/10/22 08:57:15;;;;;;;;;;;17.90;92.90;;;;;;6097398;23;19901;-73
2023/10/22 08:59:41;;;;;;;;;;;17.90;92.90;;;;;;6098597;23;19908;-73
2023/10/22 09:02:08;;;;;;;;;;;17.90;92.80;;;;;;6098021;23;19913;-73
2023/10/22 09:04:33;;;;;;;;;;;17.90;93.00;;;;;;6098848;23;19901;-71
2023/10/22 09:06:59;;;;;;;;;;;18.00;93.10;;;;;;6098242;23;20340;-72
2023/10/22 09:09:29;;;;;;;;;;;18.00;93.00;;;;;;6098239;23;19908;-71
2023/10/22 09:11:58;;;;;;;;;;;18.00;90.70;;;;;;6098101;23;20226;-71
2023/10/22 09:14:24;;;;;;;;;;;18.10;93.00;;;;;;6098188;23;19917;-73
2023/10/22 09:16:50;;;;;;;;;;;17.90;93.00;;;;;;6098235;23;19902;-73
2023/10/22 09:19:36;;;;;;;;;;;18.00;93.10;;;;;;6072535;23;19908;-73
2023/10/22 09:22:02;;;;;;;;;;;18.00;90.90;;;;;;6098081;23;19988;-73
2023/10/22 09:24:27;;;;;;;;;;;18.00;93.10;;;;;;6107893;23;20008;-75
2023/10/22 09:26:53;;;;;;;;;;;17.90;93.10;;;;;;6105161;23;20177;-78
2023/10/22 09:29:18;;;;;;;;;;;18.10;93.00;;;;;;6098673;23;19936;-75
2023/10/22 09:31:48;;;;;;;;;;;18.00;93.30;;;;;;6097927;23;19937;-73
2023/10/22 09:34:30;;;;;;;;;;;18.10;90.90;;;;;;6098089;23;20024;-71
2023/10/22 09:36:56;;;;;;;;;;;18.00;91.00;;;;;;6108068;23;19901;-71
2023/10/22 09:39:37;;;;;;;;;;;18.00;93.10;;;;;;6107655;23;19912;-71
2023/10/22 09:42:04;;;;;;;;;;;18.30;91.00;;;;;;6107703;23;20349;-71
2023/10/22 09:44:30;;;;;;;;;;;18.10;93.20;;;;;;6107613;23;19908;-71
2023/10/22 09:46:57;;;;;;;;;;;18.10;93.30;;;;;;6107978;23;20309;-71
2023/10/22 09:49:23;;;;;;;;;;;18.10;93.30;;;;;;6107668;23;20229;-71
2023/10/22 09:51:50;;;;;;;;;;;18.30;93.30;;;;;;6107546;23;19992;-72
2023/10/22 09:54:16;;;;;;;;;;;18.40;93.30;;;;;;6107542;23;19902;-73
2023/10/22 09:56:51;;;;;;;;;;;18.30;93.30;;;;;;6072062;23;19901;-73
2023/10/22 09:59:20;;;;;;;;;;;18.20;93.10;;;;;;6107449;23;19901;-73
2023/10/22 10:01:46;;;;;;;;;;;18.20;92.80;;;;;;6097638;23;19948;-73
2023/10/22 10:04:13;;;;;;;;;;;18.30;93.00;;;;;;6107367;23;20377;-73
2023/10/22 10:06:39;;;;;;;;;;;18.40;93.20;;;;;;6097967;23;19932;-73
2023/10/22 10:09:06;;;;;;;;;;;18.50;92.90;;;;;;6097897;23;20322;-73
2023/10/22 10:11:32;;;;;;;;;;;18.60;93.00;;;;;;6098202;23;19932;-73
2023/10/22 10:13:58;;;;;;;;;;;18.70;92.90;;;;;;6097846;23;20401;-73
2023/10/22 10:16:25;;;;;;;;;;;18.60;92.60;;;;;;6097810;23;19901;-74
2023/10/22 10:19:00;;;;;;;;;;;18.70;92.50;;;;;;6097772;23;19905;-73
2023/10/22 10:21:47;;;;;;;;;;;18.70;90.50;;;;;;6097711;23;19932;-73
2023/10/22 10:24:16;;;;;;;;;;;18.70;90.60;;;;;;6105504;23;19908;-73
2023/10/22 10:26:43;;;;;;;;;;;18.70;90.70;;;;;;6098032;23;19924;-72
2023/10/22 10:29:19;;;;;;;;;;;18.70;93.10;;;;;;6098002;23;19901;-72
2023/10/22 10:31:47;;;;;;;;;;;18.70;90.70;;;;;;6097699;23;19964;-70
2023/10/22 10:34:21;;;;;;;;;;;18.80;93.20;;;;;;6097417;23;19952;-71
2023/10/22 10:36:48;;;;;;;;;;;18.70;90.80;;;;;;6097912;23;19937;-71
2023/10/22 10:39:33;;;;;;;;;;;18.90;93.10;;;;;;6097504;23;19908;-72
2023/10/22 10:41:59;;;;;;;;;;;18.90;90.60;;;;;;6097837;23;19901;-72
2023/10/22 10:44:28;;;;;;;;;;;19.00;92.50;;;;;;6097860;23;19905;-77
2023/10/22 10:46:54;;;;;;;;;;;19.00;92.90;;;;;;6097482;23;19909;-75
2023/10/22 10:49:39;;;;;;;;;;;19.10;92.70;;;;;;6097917;23;20233;-75
2023/10/22 10:52:05;;;;;;;;;;;19.10;90.30;;;;;;6097722;23;19909;-73
2023/10/22 10:54:30;;;;;;;;;;;19.10;92.70;;;;;;6097412;23;19948;-73
2023/10/22 10:56:58;;;;;;;;;;;19.20;92.70;;;;;;6097716;23;19940;-73
2023/10/22 10:59:30;;;;;;;;;;;19.30;92.50;;;;;;6097605;23;19908;-75
2023/10/22 11:02:07;;;;;;;;;;;19.40;92.20;;;;;;6096927;23;20356;-74
2023/10/22 11:04:33;;;;;;;;;;;19.50;92.50;;;;;;6107368;23;19905;-73
2023/10/22 11:06:59;;;;;;;;;;;19.60;92.30;;;;;;6097501;23;19907;-73
2023/10/22 11:09:26;;;;;;;;;;;19.60;91.80;;;;;;6097282;23;19901;-75
2023/10/22 11:11:55;;;;;;;;;;;19.80;92.20;;;;;;6097549;23;19910;-74
2023/10/22 11:14:21;;;;;;;;;;;19.80;89.40;;;;;;6097540;23;19905;-76
2023/10/22 11:16:51;;;;;;;;;;;19.90;92.00;;;;;;6097686;23;19901;-75
2023/10/22 11:19:20;;;;;;;;;;;20.00;89.30;;;;;;6096918;23;20372;-76
2023/10/22 11:21:46;;;;;;;;;;;20.00;92.00;;;;;;6096740;23;20388;-76
2023/10/22 11:24:11;;;;;;;;;;;20.00;91.90;;;;;;6096922;23;19905;-75
2023/10/22 11:26:37;;;;;;;;;;;20.00;91.90;;;;;;6096927;23;19901;-74
2023/10/22 11:29:03;;;;;;;;;;;20.00;92.00;;;;;;6096745;23;19901;-75
2023/10/22 11:31:28;;;;;;;;;;;20.00;91.90;;;;;;6097336;23;19916;-74
2023/10/22 11:33:54;;;;;;;;;;;20.00;91.90;;;;;;6096845;23;19901;-74
2023/10/22 11:36:23;;;;;;;;;;;20.10;91.90;;;;;;6096802;23;20341;-78
2023/10/22 11:38:50;;;;;;;;;;;20.20;91.70;;;;;;6097059;23;19901;-76
2023/10/22 11:41:15;;;;;;;;;;;20.20;91.80;;;;;;6097314;23;19902;-74
2023/10/22 11:43:43;;;;;;;;;;;20.20;91.90;;;;;;6096713;23;19929;-76
2023/10/22 11:46:09;;;;;;;;;;;20.20;92.00;;;;;;6097224;23;19901;-75
2023/10/22 11:48:43;;;;;;;;;;;20.00;92.00;;;;;;6097430;23;19924;-73
2023/10/22 11:51:09;;;;;;;;;;;20.20;92.10;;;;;;6106744;23;20033;-71
2023/10/22 11:53:40;;;;;;;;;;;20.30;91.90;;;;;;6097066;23;20281;-75
2023/10/22 11:56:05;;;;;;;;;;;20.30;89.20;;;;;;6097171;23;19928;-75
2023/10/22 11:58:31;;;;;;;;;;;20.30;91.80;;;;;;6097060;23;19902;-74
2023/10/22 12:00:57;;;;;;;;;;;20.50;91.50;;;;;;6097088;23;19948;-75
2023/10/22 12:03:24;;;;;;;;;;;20.60;91.40;;;;;;6096616;23;20252;-75
2023/10/22 12:05:50;;;;;;;;;;;20.60;91.50;;;;;;6096823;23;19949;-75
2023/10/22 12:08:16;;;;;;;;;;;20.60;91.50;;;;;;6097181;23;19980;-75
2023/10/22 12:10:42;;;;;;;;;;;20.60;91.60;;;;;;6096730;23;19935;-74
2023/10/22 12:13:08;;;;;;;;;;;20.60;91.60;;;;;;6097196;23;19956;-75
2023/10/22 12:15:34;;;;;;;;;;;20.70;91.50;;;;;;6097013;23;20297;-76
2023/10/22 12:18:00;;;;;;;;;;;20.60;91.60;;;;;;6097023;23;19956;-74
2023/10/22 12:20:25;;;;;;;;;;;20.50;91.80;;;;;;6096439;23;19901;-75
2023/10/22 12:22:51;;;;;;;;;;;20.50;91.80;;;;;;6096261;23;20233;-74
2023/10/22 12:25:17;;;;;;;;;;;20.40;92.00;;;;;;6096977;23;19912;-75
2023/10/22 12:27:42;;;;;;;;;;;20.30;92.00;;;;;;6096369;23;20281;-74
2023/10/22 12:30:08;;;;;;;;;;;20.30;92.10;;;;;;6096306;23;19909;-71
2023/10/22 12:32:33;;;;;;;;;;;20.20;91.90;;;;;;6096122;23;19905;-70
2023/10/22 12:34:59;;;;;;;;;;;20.20;92.30;;;;;;6096935;23;19905;-71
2023/10/22 12:37:26;;;;;;;;;;;20.10;92.30;;;;;;6096860;23;19939;-71
2023/10/22 12:39:52;;;;;;;;;;;20.10;92.20;;;;;;6096545;23;19954;-70
2023/10/22 12:42:18;;;;;;;;;;;20.00;92.20;;;;;;6096884;23;19980;-70
2023/10/22 12:44:44;;;;;;;;;;;20.10;92.50;;;;;;6096941;23;20215;-71
2023/10/22 12:47:13;;;;;;;;;;;20.00;92.60;;;;;;6096407;23;19924;-71
2023/10/22 12:49:42;;;;;;;;;;;20.00;92.70;;;;;;6096697;23;19948;-71
2023/10/22 12:52:09;;;;;;;;;;;19.80;92.50;;;;;;6096459;23;19939;-71
2023/10/22 12:54:35;;;;;;;;;;;19.90;92.70;;;;;;6096902;23;19901;-70
2023/10/22 12:57:03;;;;;;;;;;;19.80;92.60;;;;;;6096946;23;19948;-70
2023/10/22 12:59:29;;;;;;;;;;;19.90;92.70;;;;;;6096683;23;20280;-70
2023/10/22 13:01:55;;;;;;;;;;;19.90;92.30;;;;;;6096530;23;19901;-71
2023/10/22 13:04:21;;;;;;;;;;;19.90;92.60;;;;;;6105951;23;20361;-72
2023/10/22 13:06:47;;;;;;;;;;;19.90;92.50;;;;;;6096686;23;19947;-76
2023/10/22 13:09:14;;;;;;;;;;;19.90;92.50;;;;;;6071141;23;19980;-73
2023/10/22 13:11:40;;;;;;;;;;;19.90;92.70;;;;;;6071589;23;19944;-74
2023/10/22 13:14:06;;;;;;;;;;;19.80;92.60;;;;;;6071100;23;19909;-74
2023/10/22 13:16:32;;;;;;;;;;;19.80;92.60;;;;;;6070639;23;19905;-74
2023/10/22 13:18:58;;;;;;;;;;;19.80;92.70;;;;;;6070642;23;19928;-74
2023/10/22 13:21:23;;;;;;;;;;;19.90;92.80;;;;;;6070643;23;19968;-74
2023/10/22 13:23:49;;;;;;;;;;;19.80;92.40;;;;;;6071227;23;19905;-71
2023/10/22 13:26:15;;;;;;;;;;;19.80;92.60;;;;;;6070991;23;20344;-71
2023/10/22 13:28:41;;;;;;;;;;;19.90;92.50;;;;;;6070945;23;19980;-71
2023/10/22 13:31:09;;;;;;;;;;;19.80;92.50;;;;;;6071244;23;19917;-71
2023/10/22 13:33:35;;;;;;;;;;;19.70;92.30;;;;;;6071659;23;20007;-74
2023/10/22 13:36:03;;;;;;;;;;;19.80;92.60;;;;;;6096302;23;19969;-74
2023/10/22 13:38:29;;;;;;;;;;;19.80;92.50;;;;;;6080784;23;19906;-74
2023/10/22 13:40:55;;;;;;;;;;;19.90;92.50;;;;;;6070525;23;19987;-74
2023/10/22 13:43:20;;;;;;;;;;;19.90;92.40;;;;;;6080839;23;19937;-75
2023/10/22 13:45:46;;;;;;;;;;;19.80;92.40;;;;;;6072357;23;19909;-74
2023/10/22 13:48:11;;;;;;;;;;;19.80;92.60;;;;;;6097924;23;20253;-74
2023/10/22 13:50:37;;;;;;;;;;;19.90;92.40;;;;;;6097793;23;19995;-74
2023/10/22 13:53:03;;;;;;;;;;;19.90;92.50;;;;;;6072463;23;19979;-75
2023/10/22 13:55:28;;;;;;;;;;;19.90;92.10;;;;;;6072245;23;19912;-74
2023/10/22 13:57:54;;;;;;;;;;;19.90;92.30;;;;;;6097728;23;19901;-74
2023/10/22 14:00:20;;;;;;;;;;;20.00;92.00;;;;;;6098343;23;20081;-74
2023/10/22 14:02:45;;;;;;;;;;;20.00;91.90;;;;;;6097377;23;20389;-74
2023/10/22 14:05:11;;;;;;;;;;;20.00;91.90;;;;;;6097696;23;19932;-74
2023/10/22 14:07:37;;;;;;;;;;;20.10;91.90;;;;;;6097738;23;20331;-74
2023/10/22 14:10:04;;;;;;;;;;;20.00;92.10;;;;;;6097683;23;19983;-71
2023/10/22 14:12:30;;;;;;;;;;;20.00;91.50;;;;;;6098290;23;20297;-74
2023/10/22 14:14:56;;;;;;;;;;;20.00;92.10;;;;;;6098186;23;19902;-74